CUA weather

Ciudad Constitución Airport
Ciudad Constitución, Baja California Sur, Mexico

Public forecast

Using degrees Celsius for public forecast. Weather courtesy of forecast.io.

Closest aviation weather report (METAR) to Ciudad Constitución Airport

Report is more than 6 hours old.

Closest report is Loreto International Airport, 58.0 nm (107.4 km) NNE. Retrieved 2020/07/10 23:56 UTC (12 hours ago):

MMLT 102356Z 16007KT 8SM SCT030 33/27 A2983 RMK SLP102 8/300 HZY

Closest aviation forecast (TAF) to Ciudad Constitución Airport

Closest forecast is Loreto International Airport, 58.0 nm (107.4 km) NNE. Retrieved 2020/07/11 06:57 UTC (5 hours ago):

TAF MMLT 110454Z 1106/1206 16005KT P6SM SCT020 FM111800 14012KT P6SM SCT030 SCT100 FM120300 14005KT P6SM SCT020